सभी
Kyogle Hospital Airport YXKO मौसम
There is no TAF data available at YXKO. Showing TAF data for YLIS (21 mi SE).
LSY Terminal Area Forecast (no data for YXKO)
| Here is the undecoded forecast: 2026/05/04 07:07 YLIS 040707Z 0408/0420 09005KT 9999 SCT025 FM041000 36005KT 9999 SCT012 PROB40 0412/0420 0300 FG BKN001 RMK T 20 18 16 14 Q 1017 1017 1017 1016 |
There is no METAR data available at YXKO. Showing METAR data for YCAS (18 mi S).
Recent CSI METAR history (no data for YXKO)
| Date | Time (AEST) | Flight Rules | Wind Dir. | Speed | Type | Height AGL (ft) | Visibility | Temp (°C) | Temp (°F) | Dew Point (°C) | Dew Point (°F) | Rel. Humid. | Pressure | Density Altitude | Remarks |
|---|---|---|---|---|---|---|---|---|---|---|---|---|---|---|---|
| 04-मई | 23:00 | n/a | 130° | 4 kt | Missing | 17° | 62° | 17° | 62° | 100% | 1018 mb | 183 ft | |||
| 04-मई | 22:00 | n/a | Calm | Missing | 17° | 62° | 17° | 62° | 100% | 1018 mb | 183 ft | ||||
| 04-मई | 21:00 | n/a | 130° | 3 kt | Missing | 19° | 66° | 18° | 64° | 94% | 1018 mb | 423 ft | |||
| 04-मई | 20:00 | n/a | 130° | 3 kt | Missing | 19° | 66° | 18° | 64° | 94% | 1018 mb | 423 ft | |||
| 04-मई | 19:00 | n/a | 110° | 3 kt | Missing | 19° | 66° | 18° | 64° | 94% | 1018 mb | 423 ft | |||
| 04-मई | 18:00 | n/a | 110° | 5 kt | Missing | 20° | 68° | 19° | 66° | 94% | 1017 mb | 573 ft | |||
| 04-मई | 17:00 | n/a | 100° | 7 kt | Missing | 22° | 71° | 19° | 66° | 83% | 1016 mb | 843 ft | |||
| 04-मई | 16:00 | n/a | 100° | 4 kt | Missing | 26° | 78° | 17° | 62° | 58% | 1016 mb | 1,323 ft | |||
| 04-मई | 15:00 | n/a | 40° | 2 kt | Missing | 26° | 78° | 17° | 62° | 58% | 1016 mb | 1,323 ft | |||
| 04-मई | 14:00 | n/a | 20° | 4 kt | Missing | 26° | 78° | 18° | 64° | 61% | 1016 mb | 1,323 ft | |||
| 04-मई | 13:00 | n/a | 350° | 3 kt | Missing | 25° | 77° | 18° | 64° | 65% | 1017 mb | 1,173 ft | |||
| 04-मई | 12:00 | n/a | 70° | 3 kt | Missing | 24° | 75° | 19° | 66° | 74% | 1018 mb | 1,023 ft | |||
| 04-मई | 11:00 | n/a | 50° | 4 kt | Missing | 22° | 71° | 19° | 66° | 83% | 1019 mb | 754 ft | |||
| 04-मई | 10:00 | n/a | 130° | 3 kt | Missing | 21° | 69° | 19° | 66° | 88% | 1020 mb | 604 ft | |||
| 04-मई | 09:00 | n/a | 250° | 4 kt | Missing | 20° | 68° | 19° | 66° | 94% | 1020 mb | 484 ft | |||
| 04-मई | 08:00 | n/a | Calm | Missing | 18° | 64° | 18° | 64° | 100% | 1020 mb | 244 ft | ||||
| 04-मई | 07:00 | n/a | Calm | Missing | 18° | 64° | 18° | 64° | 100% | 1019 mb | 274 ft | ||||
| 04-मई | 06:00 | n/a | 360° | 3 kt | Missing | 17° | 62° | 17° | 62° | 100% | 1019 mb | 154 ft | |||
| 04-मई | 05:00 | n/a | Calm | Missing | 17° | 62° | 17° | 62° | 100% | 1019 mb | 154 ft | ||||
| 04-मई | 04:00 | n/a | Calm | Missing | 17° | 62° | 17° | 62° | 100% | 1019 mb | 154 ft | ||||
| 04-मई | 03:00 | n/a | 280° | 2 kt | Missing | 17° | 62° | 17° | 62° | 100% | 1019 mb | 154 ft | |||
| 04-मई | 02:00 | n/a | Calm | Missing | 16° | 60° | 16° | 60° | 100% | 1019 mb | 34 ft | ||||
| 04-मई | 01:00 | n/a | 300° | 3 kt | Missing | 17° | 62° | 17° | 62° | 100% | 1019 mb | 154 ft | |||
| 04-मई | 00:00 | n/a | 290° | 1 kt | Missing | 16° | 60° | 16° | 60° | 100% | 1020 mb | 4 ft |
लॉगिन
| Your browser is unsupported. अपना ब्राऊजर अपग्रेड करें |
